Wall, SD (57790)

4:10 AM MDT on July 23, 2016 (GMT -0600)
NonFedAWOS | | Change Station
Active Advisory: Fire Weather Watch

Elev 2812 ft 44.00 °N, 102.25 °W | Updated 55 minutes ago

Partly Cloudy
Partly Cloudy
73 °F
Feels Like 71 °F
N
0
Wind Variable Wind from North
Gusts 0.0 mph

Today
High -- | Low -- °F
--% Chance of Precip.
Yesterday
High -- | Low -- °F
Precip. -- in
Pressure 29.75 in
Visibility 10.0 miles
Clouds Few 2100 ft
Few 12000 ft
Heat Index 71 °F
Dew Point 70 °F
Humidity 89%
Rainfall in
Snow Depth Not available.
5:28 AM 8:21 PM
Waning Gibbous, 86% visible
METAR KPHP 230955Z AUTO 04006KT 10SM FEW021 FEW120 24/23 A2984 RMK AO2 SLP073 T02390228
Pressure 29.75 in
Visibility 10.0 miles
Clouds Few 2100 ft
Few 12000 ft
Heat Index 71 °F
Dew Point 70 °F
Humidity 89%
Rainfall in
Snow Depth Not available.
5:28 AM 8:21 PM
Waning Gibbous, 86% visible
METAR KPHP 230955Z AUTO 04006KT 10SM FEW021 FEW120 24/23 A2984 RMK AO2 SLP073 T02390228

10-Day Weather Forecast

Almanac

Astronomy

Jul. 23, 2016 Rise Set
Actual Time
Civil Twilight
Nautical Twilight
Astronomical Twilight
Moon
Length of Visible Light
Length of Day
Tomorrow will be .
, % of the Moon is Illuminated

Today's Extremes

State Highs State Lows

Community

WunderPhotos

Upload Photos

1,926,790 photos uploaded!

WunderBlog® & News

Nearby

Air Quality

  Air Quality AQ Index Pollutant
Not available.

Snow Depth

Station Depth Elevation

Earthquake Activity

City Distance Mag. Time & Date
Minimum magnitude displayed is 2.5.

Coastal Water Temperatures

Place Temperature

Stations

Nearby Weather Stations

Station Location Temp. Windchill Dew Point Humidity Wind Precip. Elev Updated Type
                   

Watches & Warnings

Fire Weather Watch
Issued: 9:08 PM MDT Jul. 22, 2016 – National Weather Service

... Fire Weather Watch remains in effect from Saturday afternoon
through Saturday evening for gusty winds and low relative
humidity for fire weather zones 260... 261... 262... 264 and 299...

* affected area... fire weather zones 260... 261... 262... 264 and
299.

* Winds... northwest 15 to 25 mph with gusts up to 35 mph.

* Relative humidity... 15 to 20 percent.

* Impacts... the combination of dry fuels... gusty winds... low
relative humidity... and dry lightning may create weather
conditions favorable for explosive fire growth.

Precautionary/preparedness actions...

A Fire Weather Watch means that critical fire weather conditions
are forecast to occur. Listen for later forecasts and possible
red flag warnings.